Z19O weather

Wujah Al Hajar Air Base
Hamat, North Governorate, Lebanon

Public forecast

Using degrees Celsius for public forecast. Weather courtesy of forecast.io.

METAR (pilot weather report)

Closest report is Beirut Rafic Hariri International Airport, 29.2 nm (54.1 km) SSW. Retrieved 2019/06/16 16:00 UTC (19 minutes ago):

OLBA 161600Z 28004KT 240V300 7000 NSC 27/20 Q1009 NOSIG

TAF (pilot weather forecast)

Forecast is more than 6 hours old.

Closest forecast is Beirut Rafic Hariri International Airport, 29.2 nm (54.1 km) SSW. Retrieved 2019/06/16 06:00 UTC (10 hours ago):

TAF OLBA 160400Z 1606/1712 28008KT 8000 SCT026 TEMPO 1606/1606 5000 BR BKN026 BECMG 1706/1709 23015KT 9999 FEW026